createdAt,value
2018-05-23T00:00:48.215Z,100209.19
2018-05-23T00:03:15.901Z,100207.78
2018-05-23T00:05:43.590Z,100204.06
2018-05-23T00:08:11.240Z,100202.67
2018-05-23T00:13:17.569Z,100197.95
2018-05-23T00:15:45.282Z,100199.97
2018-05-23T00:18:12.954Z,100197.52
2018-05-23T00:20:40.623Z,100191.37
2018-05-23T00:23:08.327Z,100191.99
2018-05-23T00:25:35.993Z,100188.25
2018-05-23T00:28:03.649Z,100183.41
2018-05-23T00:30:31.366Z,100186.33
2018-05-23T00:32:59.017Z,100186.15
2018-05-23T00:35:26.691Z,100184.24
2018-05-23T00:37:54.424Z,100182.07
2018-05-23T00:40:22.093Z,100179.05
2018-05-23T00:42:49.787Z,100178.44
2018-05-23T00:45:17.541Z,100176.42
2018-05-23T00:47:45.214Z,100177.45
2018-05-23T00:50:13.556Z,100172.45
2018-05-23T00:52:41.232Z,100180.88
2018-05-23T00:55:20.579Z,100180.08
2018-05-23T00:57:48.279Z,100184.66
2018-05-23T01:00:15.942Z,100179.13
2018-05-23T01:02:43.621Z,100179.38
2018-05-23T01:05:11.340Z,100181.09
2018-05-23T01:07:39.010Z,100184.91
2018-05-23T01:10:06.688Z,100183.67
2018-05-23T01:12:34.403Z,100184.50
2018-05-23T01:15:02.067Z,100189.78
2018-05-23T01:17:29.720Z,100184.06
2018-05-23T01:19:57.460Z,100184.50
2018-05-23T01:22:25.123Z,100186.20
2018-05-23T01:24:52.783Z,100180.81
2018-05-23T01:27:20.524Z,100186.66
2018-05-23T01:29:48.205Z,100184.45
2018-05-23T01:32:15.879Z,100176.67
2018-05-23T01:34:43.619Z,100177.34
2018-05-23T01:37:11.299Z,100181.66
2018-05-23T01:39:38.963Z,100177.62
2018-05-23T01:42:06.661Z,100178.67
2018-05-23T01:44:34.383Z,100176.34
2018-05-23T01:47:02.128Z,100180.02
2018-05-23T01:49:30.137Z,100180.44
2018-05-23T01:51:58.187Z,100174.19
2018-05-23T01:54:26.075Z,100179.63
2018-05-23T01:56:53.766Z,100180.77
2018-05-23T01:59:21.477Z,100187.53
2018-05-23T02:01:49.126Z,100182.70
2018-05-23T02:04:16.826Z,100183.78
2018-05-23T02:06:44.489Z,100184.56
2018-05-23T02:09:12.159Z,100181.78
2018-05-23T02:11:39.874Z,100182.87
2018-05-23T02:14:07.543Z,100175.70
2018-05-23T02:16:35.224Z,100181.23
2018-05-23T02:19:03.273Z,100176.47
2018-05-23T02:21:31.165Z,100181.91
2018-05-23T02:23:58.906Z,100180.63
2018-05-23T02:26:26.606Z,100186.63
2018-05-23T02:28:54.268Z,100177.23
2018-05-23T02:31:21.945Z,100182.92
2018-05-23T02:33:49.651Z,100172.84
2018-05-23T02:36:17.320Z,100175.64
2018-05-23T02:38:44.986Z,100186.96
2018-05-23T02:41:12.669Z,100188.95
2018-05-23T02:43:40.446Z,100192.70
2018-05-23T02:46:08.132Z,100185.69
2018-05-23T02:48:35.801Z,100191.33
2018-05-23T02:51:03.470Z,100189.98
2018-05-23T02:53:31.114Z,100188.44
2018-05-23T02:55:58.727Z,100189.21
2018-05-23T02:58:26.292Z,100199.59
2018-05-23T03:00:53.882Z,100185.45
2018-05-23T03:03:21.545Z,100196.50
2018-05-23T03:05:49.098Z,100191.95
2018-05-23T03:08:16.676Z,100187.20
2018-05-23T03:10:44.393Z,100196.09
2018-05-23T03:13:11.938Z,100197.08
2018-05-23T03:15:39.556Z,100197.61
2018-05-23T03:18:07.177Z,100202.11
2018-05-23T03:20:34.760Z,100203.17
2018-05-23T03:23:02.346Z,100205.91
2018-05-23T03:25:29.954Z,100207.39
2018-05-23T03:27:57.527Z,100209.73
2018-05-23T03:30:25.111Z,100210.30
2018-05-23T03:32:52.718Z,100208.38
2018-05-23T03:35:20.303Z,100208.37
2018-05-23T03:37:47.899Z,100209.80
2018-05-23T03:40:15.529Z,100211.27
2018-05-23T03:42:43.131Z,100210.37
2018-05-23T03:45:10.703Z,100204.58
2018-05-23T03:47:38.303Z,100208.27
2018-05-23T03:50:05.919Z,100209.26
2018-05-23T03:52:33.504Z,100211.19
2018-05-23T03:55:01.104Z,100212.45
2018-05-23T03:57:28.690Z,100210.20
2018-05-23T04:00:08.095Z,100220.34
2018-05-23T04:02:47.324Z,100223.73
2018-05-23T04:05:26.660Z,100219.74
2018-05-23T04:07:55.351Z,100222.57
2018-05-23T04:10:23.019Z,100226.30
2018-05-23T04:12:50.640Z,100228.06
2018-05-23T04:15:18.237Z,100223.04
2018-05-23T04:17:45.846Z,100225.13
2018-05-23T04:20:13.474Z,100225.00
2018-05-23T04:22:41.053Z,100217.58
2018-05-23T04:25:08.618Z,100220.56
2018-05-23T04:27:36.212Z,100221.51
2018-05-23T04:30:03.851Z,100220.84
2018-05-23T04:32:31.555Z,100223.27
2018-05-23T04:34:59.247Z,100218.59
2018-05-23T04:37:26.895Z,100218.20
2018-05-23T04:39:54.555Z,100211.24
2018-05-23T04:42:22.425Z,100215.86
2018-05-23T04:44:50.071Z,100219.84
2018-05-23T04:47:17.723Z,100225.75
2018-05-23T04:49:45.340Z,100217.34
2018-05-23T04:52:12.907Z,100221.34
2018-05-23T04:54:40.583Z,100223.57
2018-05-23T04:57:08.188Z,100224.33
2018-05-23T04:59:35.770Z,100225.81
2018-05-23T05:02:03.503Z,100224.88
2018-05-23T05:04:31.171Z,100219.52
2018-05-23T05:06:58.747Z,100222.36
2018-05-23T05:09:26.337Z,100223.00
2018-05-23T05:11:53.956Z,100219.25
2018-05-23T05:14:21.546Z,100220.02
2018-05-23T05:16:49.276Z,100216.59
2018-05-23T05:19:17.152Z,100217.92
2018-05-23T05:21:44.855Z,100214.15
2018-05-23T05:24:12.490Z,100213.87
2018-05-23T05:26:40.092Z,100205.53
2018-05-23T05:29:07.701Z,100212.59
2018-05-23T05:31:35.296Z,100210.39
2018-05-23T05:34:02.962Z,100206.77
2018-05-23T05:36:30.545Z,100210.19
2018-05-23T05:38:58.126Z,100219.50
2018-05-23T05:41:25.720Z,100217.72
2018-05-23T05:43:53.313Z,100218.13
2018-05-23T05:46:20.895Z,100212.43
2018-05-23T05:48:48.506Z,100214.70
2018-05-23T05:51:16.099Z,100217.81
2018-05-23T05:53:43.763Z,100222.02
2018-05-23T05:56:11.337Z,100218.49
2018-05-23T05:58:38.924Z,100221.90
2018-05-23T06:01:06.504Z,100227.77
2018-05-23T06:03:34.143Z,100229.00
2018-05-23T06:06:01.733Z,100224.11
2018-05-23T06:08:29.311Z,100221.20
2018-05-23T06:10:56.929Z,100228.09
2018-05-23T06:13:24.529Z,100225.35
2018-05-23T06:15:52.133Z,100220.92
2018-05-23T06:18:19.747Z,100219.03
2018-05-23T06:20:47.322Z,100225.02
2018-05-23T06:23:14.915Z,100221.77
2018-05-23T06:25:42.549Z,100220.55
2018-05-23T06:28:10.136Z,100215.97
2018-05-23T06:30:37.716Z,100219.50
2018-05-23T06:33:05.335Z,100216.77
2018-05-23T06:35:32.933Z,100210.37
2018-05-23T06:38:00.529Z,100207.00
2018-05-23T06:40:28.153Z,100208.56
2018-05-23T06:42:55.867Z,100208.31
2018-05-23T06:45:23.458Z,100203.88
2018-05-23T06:47:51.083Z,100204.31
2018-05-23T06:50:18.673Z,100202.29
2018-05-23T06:52:46.245Z,100187.80
2018-05-23T06:55:13.876Z,100192.25
2018-05-23T06:57:41.460Z,100181.31
2018-05-23T07:00:09.051Z,100188.33
2018-05-23T07:02:36.689Z,100186.67
2018-05-23T07:05:04.285Z,100183.30
2018-05-23T07:07:31.880Z,100188.31
2018-05-23T07:09:59.501Z,100179.94
2018-05-23T07:12:27.371Z,100181.92
2018-05-23T07:14:55.139Z,100187.74
2018-05-23T07:17:22.771Z,100188.09
2018-05-23T07:19:50.391Z,100178.08
2018-05-23T07:22:18.012Z,100190.58
2018-05-23T07:24:45.631Z,100186.99
2018-05-23T07:27:13.216Z,100191.55
2018-05-23T07:29:40.796Z,100188.89
2018-05-23T07:32:08.427Z,100187.52
2018-05-23T07:34:36.002Z,100189.61
2018-05-23T07:37:03.597Z,100177.86
2018-05-23T07:39:31.211Z,100182.26
2018-05-23T07:41:58.802Z,100187.22
2018-05-23T07:44:26.382Z,100182.21
2018-05-23T07:46:54.031Z,100180.38
2018-05-23T07:49:21.636Z,100183.63
2018-05-23T07:51:49.228Z,100174.46
2018-05-23T07:54:17.011Z,100174.17
2018-05-23T07:56:44.626Z,100181.47
2018-05-23T07:59:12.255Z,100179.33
2018-05-23T08:01:39.896Z,100182.67
2018-05-23T08:04:07.474Z,100179.31
2018-05-23T08:06:35.063Z,100174.52
2018-05-23T08:09:02.774Z,100178.28
2018-05-23T08:11:30.366Z,100176.58
2018-05-23T08:13:57.951Z,100166.14
2018-05-23T08:16:25.657Z,100182.17
2018-05-23T08:18:53.230Z,100180.79
2018-05-23T08:21:20.878Z,100174.55
2018-05-23T08:23:48.527Z,100170.98
2018-05-23T08:26:16.115Z,100170.34
2018-05-23T08:28:43.712Z,100171.62
2018-05-23T08:31:11.336Z,100170.53
2018-05-23T08:33:38.916Z,100167.87
2018-05-23T08:36:06.490Z,100173.52
2018-05-23T08:38:34.082Z,100165.44
2018-05-23T08:41:01.689Z,100171.73
2018-05-23T08:43:29.270Z,100170.74
2018-05-23T08:45:56.959Z,100174.05
2018-05-23T08:48:24.667Z,100176.18
2018-05-23T08:50:52.303Z,100167.56
2018-05-23T08:53:19.985Z,100172.00
2018-05-23T08:55:47.552Z,100167.09
2018-05-23T08:58:15.151Z,100162.08
2018-05-23T09:00:42.795Z,100159.02
2018-05-23T09:03:10.361Z,100158.25
2018-05-23T09:05:37.940Z,100157.06
2018-05-23T09:08:05.557Z,100160.73
2018-05-23T09:10:33.138Z,100155.11
2018-05-23T09:13:00.728Z,100145.78
2018-05-23T09:15:28.348Z,100142.77
2018-05-23T09:17:55.928Z,100149.55
2018-05-23T09:20:23.519Z,100140.48
2018-05-23T09:22:51.144Z,100142.77
2018-05-23T09:25:18.805Z,100143.17
2018-05-23T09:27:46.333Z,100131.47
2018-05-23T09:30:13.949Z,100132.22
2018-05-23T09:32:41.526Z,100132.62
2018-05-23T09:35:09.111Z,100125.22
2018-05-23T09:37:36.733Z,100126.83
2018-05-23T09:40:04.330Z,100128.94
2018-05-23T09:42:31.913Z,100126.33
2018-05-23T09:44:59.608Z,100119.69
2018-05-23T09:47:27.200Z,100119.90
2018-05-23T09:49:55.450Z,100122.06
2018-05-23T09:52:23.057Z,100111.20
2018-05-23T09:54:50.633Z,100109.46
2018-05-23T09:57:18.201Z,100107.44
2018-05-23T09:59:45.803Z,100102.80
2018-05-23T10:02:13.395Z,100110.82
2018-05-23T10:04:40.970Z,100105.09
2018-05-23T10:07:08.577Z,100103.97
2018-05-23T10:09:36.168Z,100105.75
2018-05-23T10:12:03.739Z,100104.80
2018-05-23T10:14:31.336Z,100098.69
2018-05-23T10:16:58.941Z,100093.48
2018-05-23T10:19:26.525Z,100088.88
2018-05-23T10:21:54.142Z,100086.53
2018-05-23T10:24:21.724Z,100083.41
2018-05-23T10:26:49.307Z,100086.64
2018-05-23T10:29:16.906Z,100085.44
2018-05-23T10:31:44.526Z,100084.68
2018-05-23T10:34:12.091Z,100082.39
2018-05-23T10:36:39.696Z,100085.27
2018-05-23T10:39:07.287Z,100070.41
2018-05-23T10:41:34.872Z,100080.53
2018-05-23T10:44:02.471Z,100068.90
2018-05-23T10:46:30.053Z,100069.69
2018-05-23T10:48:57.628Z,100067.29
2018-05-23T10:51:25.237Z,100073.52
2018-05-23T10:53:52.881Z,100067.22
2018-05-23T10:56:20.476Z,100058.98
2018-05-23T10:58:48.108Z,100063.65
2018-05-23T11:01:15.703Z,100070.95
2018-05-23T11:03:43.299Z,100071.45
2018-05-23T11:06:10.916Z,100060.38
2018-05-23T11:08:38.503Z,100062.31
2018-05-23T11:11:06.085Z,100048.46
2018-05-23T11:13:33.694Z,100047.04
2018-05-23T11:16:01.320Z,100046.71
2018-05-23T11:18:29.048Z,100034.50
2018-05-23T11:20:56.669Z,100034.30
2018-05-23T11:23:24.256Z,100032.78
2018-05-23T11:25:51.860Z,100033.41
2018-05-23T11:28:19.477Z,100027.58
2018-05-23T11:30:47.056Z,100026.77
2018-05-23T11:33:14.637Z,100018.12
2018-05-23T11:35:42.247Z,100017.25
2018-05-23T11:38:09.867Z,100019.05
2018-05-23T11:40:37.425Z,100008.81
2018-05-23T11:43:05.035Z,100009.30
2018-05-23T11:45:32.626Z,100007.47
2018-05-23T11:48:00.310Z,100007.55
2018-05-23T11:50:28.161Z,100005.95
2018-05-23T11:52:56.021Z,100008.19
2018-05-23T11:55:23.625Z,100000.37
2018-05-23T11:57:51.221Z,100001.31
2018-05-23T12:00:18.819Z,99997.58
2018-05-23T12:02:46.394Z,100000.41
2018-05-23T12:05:14.167Z,100002.68
2018-05-23T12:07:42.508Z,99999.06
2018-05-23T12:10:10.312Z,99995.75
2018-05-23T12:12:38.171Z,99999.95
2018-05-23T12:15:05.961Z,99991.19
2018-05-23T12:17:33.585Z,99996.36
2018-05-23T12:20:01.726Z,99990.27
2018-05-23T12:22:29.588Z,99992.40
2018-05-23T12:24:57.619Z,99979.15
2018-05-23T12:27:25.315Z,99985.00
2018-05-23T12:29:52.882Z,99977.38
2018-05-23T12:32:20.452Z,99973.89
2018-05-23T12:34:48.050Z,99967.15
2018-05-23T12:37:15.614Z,99967.20
2018-05-23T12:39:43.169Z,99975.31
2018-05-23T12:42:10.801Z,99965.22
2018-05-23T12:44:38.360Z,99961.95
2018-05-23T12:47:05.935Z,99955.58
2018-05-23T12:49:33.592Z,99954.38
2018-05-23T12:52:01.162Z,99945.77
2018-05-23T12:54:29.296Z,99941.30
2018-05-23T12:56:56.901Z,99938.27
2018-05-23T12:59:24.485Z,99934.89
2018-05-23T13:01:52.099Z,99922.78
2018-05-23T13:04:19.719Z,99925.91
2018-05-23T13:06:47.307Z,99912.70
2018-05-23T13:09:14.891Z,99926.08
2018-05-23T13:11:42.642Z,99917.05
2018-05-23T13:14:10.224Z,99918.67
2018-05-23T13:16:38.209Z,99913.45
2018-05-23T13:19:05.810Z,99903.94
2018-05-23T13:21:33.382Z,99900.27
2018-05-23T13:24:00.989Z,99900.17
2018-05-23T13:26:28.740Z,99893.77
2018-05-23T13:28:56.327Z,99898.22
2018-05-23T13:31:23.894Z,99896.50
2018-05-23T13:33:51.521Z,99887.90
2018-05-23T13:36:19.108Z,99883.55
2018-05-23T13:38:46.750Z,99871.09
2018-05-23T13:41:14.352Z,99873.88
2018-05-23T13:43:41.912Z,99864.83
2018-05-23T13:46:09.487Z,99856.67
2018-05-23T13:48:37.096Z,99856.73
2018-05-23T13:51:04.672Z,99852.33
2018-05-23T13:53:32.270Z,99853.75
2018-05-23T13:55:59.904Z,99849.33
2018-05-23T13:58:27.521Z,99847.68
2018-05-23T14:00:55.101Z,99844.09
2018-05-23T14:03:22.732Z,99855.17
2018-05-23T14:05:50.311Z,99839.42
2018-05-23T14:08:17.899Z,99839.78
2018-05-23T14:10:45.506Z,99835.80
2018-05-23T14:13:13.098Z,99829.55
2018-05-23T14:15:40.675Z,99831.46
2018-05-23T14:18:08.304Z,99828.59
2018-05-23T14:20:35.886Z,99815.84
2018-05-23T14:23:03.449Z,99818.73
2018-05-23T14:25:31.066Z,99821.69
2018-05-23T14:27:58.668Z,99817.31
2018-05-23T14:30:26.272Z,99823.16
2018-05-23T14:32:53.877Z,99821.02
2018-05-23T14:35:21.577Z,99822.14
2018-05-23T14:37:49.140Z,99822.05
2018-05-23T14:40:16.775Z,99817.31
2018-05-23T14:42:44.425Z,99816.08
2018-05-23T14:45:12.008Z,99814.02
2018-05-23T14:47:39.621Z,99803.61
2018-05-23T14:50:07.228Z,99813.05
2018-05-23T14:52:34.861Z,99822.83
2018-05-23T14:55:02.492Z,99819.55
2018-05-23T14:57:30.118Z,99816.91
2018-05-23T14:59:57.733Z,99817.84
2018-05-23T15:02:25.424Z,99817.97
2018-05-23T15:04:52.951Z,99824.57
2018-05-23T15:07:20.556Z,99816.84
2018-05-23T15:09:48.160Z,99822.55
2018-05-23T15:12:15.727Z,99809.78
2018-05-23T15:14:43.631Z,99819.77
2018-05-23T15:17:11.251Z,99821.14
2018-05-23T15:19:38.843Z,99817.56
2018-05-23T15:22:06.428Z,99820.24
2018-05-23T15:24:34.054Z,99823.98
2018-05-23T15:27:01.659Z,99816.87
2018-05-23T15:29:29.225Z,99816.19
2018-05-23T15:31:56.840Z,99821.91
2018-05-23T15:34:24.402Z,99819.41
2018-05-23T15:36:51.994Z,99816.51
2018-05-23T15:39:19.621Z,99820.82
2018-05-23T15:41:47.306Z,99821.42
2018-05-23T15:44:14.835Z,99833.58
2018-05-23T15:46:42.464Z,99829.00
2018-05-23T15:49:10.052Z,99833.78
2018-05-23T15:51:37.634Z,99835.51
2018-05-23T15:54:05.239Z,99839.56
2018-05-23T15:56:32.825Z,99834.66
2018-05-23T15:59:00.437Z,99832.61
2018-05-23T16:01:28.049Z,99839.66
2018-05-23T16:03:55.628Z,99842.53
2018-05-23T16:06:23.211Z,99841.58
2018-05-23T16:08:50.814Z,99838.09
2018-05-23T16:11:18.383Z,99836.53
2018-05-23T16:13:45.964Z,99843.11
2018-05-23T16:16:13.560Z,99836.27
2018-05-23T16:18:41.151Z,99830.36
2018-05-23T16:21:08.754Z,99839.50
2018-05-23T16:23:36.336Z,99838.78
2018-05-23T16:26:03.913Z,99832.53
2018-05-23T16:28:31.492Z,99830.02
2018-05-23T16:30:59.102Z,99836.44
2018-05-23T16:33:26.667Z,99834.39
2018-05-23T16:35:54.435Z,99831.36
2018-05-23T16:38:22.052Z,99843.29
2018-05-23T16:40:49.621Z,99840.34
2018-05-23T16:43:17.211Z,99842.69
2018-05-23T16:45:44.818Z,99846.80
2018-05-23T16:48:12.544Z,99846.56
2018-05-23T16:50:40.126Z,99841.13
2018-05-23T16:53:07.736Z,99841.77
2018-05-23T16:55:35.348Z,99844.36
2018-05-23T16:58:02.925Z,99842.84
2018-05-23T17:00:30.532Z,99845.23
2018-05-23T17:02:58.096Z,99838.52
2018-05-23T17:05:25.657Z,99840.27
2018-05-23T17:07:53.267Z,99844.94
2018-05-23T17:10:20.839Z,99848.27
2018-05-23T17:12:48.410Z,99848.89
2018-05-23T17:15:16.017Z,99839.62
2018-05-23T17:17:43.588Z,99826.31
2018-05-23T17:20:11.259Z,99833.75
2018-05-23T17:22:38.887Z,99824.34
2018-05-23T17:25:06.763Z,99835.64
2018-05-23T17:27:34.339Z,99835.54
2018-05-23T17:30:01.950Z,99832.50
2018-05-23T17:32:29.516Z,99828.20
2018-05-23T17:34:57.103Z,99818.53
2018-05-23T17:37:24.715Z,99824.98
2018-05-23T17:39:52.312Z,99824.66
2018-05-23T17:42:19.929Z,99825.56
2018-05-23T17:44:47.541Z,99822.50
2018-05-23T17:47:15.120Z,99818.30
2018-05-23T17:49:55.398Z,99813.21
2018-05-23T17:52:22.990Z,99818.63
2018-05-23T17:54:50.550Z,99824.09
2018-05-23T17:57:18.166Z,99829.12
2018-05-23T17:59:45.727Z,99828.84
2018-05-23T18:02:13.309Z,99830.33
2018-05-23T18:04:40.906Z,99831.23
2018-05-23T18:07:08.498Z,99832.23
2018-05-23T18:09:36.068Z,99832.93
2018-05-23T18:12:03.746Z,99832.97
2018-05-23T18:14:31.276Z,99835.54
2018-05-23T18:16:58.842Z,99834.58
2018-05-23T18:19:26.448Z,99831.70
2018-05-23T18:21:54.005Z,99831.15
2018-05-23T18:24:21.569Z,99836.88
2018-05-23T18:26:49.179Z,99834.81
2018-05-23T18:29:16.741Z,99832.88
2018-05-23T18:31:44.316Z,99829.09
2018-05-23T18:34:11.907Z,99839.09
2018-05-23T18:36:39.478Z,99838.34
2018-05-23T18:39:07.065Z,99840.83
2018-05-23T18:41:37.943Z,99839.19
2018-05-23T18:44:05.667Z,99845.70
2018-05-23T18:46:33.232Z,99848.47
2018-05-23T18:49:00.835Z,99849.64
2018-05-23T18:51:28.392Z,99851.45
2018-05-23T18:53:55.952Z,99856.42
2018-05-23T18:56:23.856Z,99852.25
2018-05-23T18:58:51.433Z,99848.34
2018-05-23T19:01:19.141Z,99847.20
2018-05-23T19:03:46.766Z,99845.41
2018-05-23T19:06:14.927Z,99852.15
2018-05-23T19:08:42.536Z,99848.80
2018-05-23T19:11:10.160Z,99847.47
2018-05-23T19:13:37.781Z,99840.92
2018-05-23T19:16:05.361Z,99847.61
2018-05-23T19:18:32.958Z,99847.81
2018-05-23T19:21:00.540Z,99848.02
2018-05-23T19:23:28.113Z,99852.30
2018-05-23T19:25:55.727Z,99854.80
2018-05-23T19:28:23.304Z,99852.89
2018-05-23T19:30:50.918Z,99855.37
2018-05-23T19:33:18.599Z,99854.72
2018-05-23T19:35:46.241Z,99852.75
2018-05-23T19:38:13.826Z,99855.23
2018-05-23T19:40:41.438Z,99864.81
2018-05-23T19:43:09.003Z,99865.37
2018-05-23T19:45:36.575Z,99866.97
2018-05-23T19:48:04.186Z,99862.58
2018-05-23T19:50:31.770Z,99865.03
2018-05-23T19:52:59.450Z,99862.36
2018-05-23T19:55:27.037Z,99873.42
2018-05-23T19:57:54.679Z,99870.17
2018-05-23T20:00:22.241Z,99872.91
2018-05-23T20:02:49.880Z,99876.17
2018-05-23T20:05:17.460Z,99877.00
2018-05-23T20:07:45.030Z,99880.38
2018-05-23T20:10:13.002Z,99884.63
2018-05-23T20:12:40.581Z,99893.02
2018-05-23T20:15:08.139Z,99890.97
2018-05-23T20:17:35.738Z,99886.25
2018-05-23T20:20:03.916Z,99883.62
2018-05-23T20:22:31.478Z,99880.52
2018-05-23T20:24:59.102Z,99883.36
2018-05-23T20:27:26.664Z,99880.09
2018-05-23T20:29:54.281Z,99885.93
2018-05-23T20:32:21.918Z,99883.47
2018-05-23T20:34:49.512Z,99879.53
2018-05-23T20:37:17.100Z,99876.53
2018-05-23T20:39:44.716Z,99880.87
2018-05-23T20:42:12.296Z,99881.80
2018-05-23T20:44:39.888Z,99879.63
2018-05-23T20:47:07.488Z,99882.75
2018-05-23T20:49:35.100Z,99877.85
2018-05-23T20:52:02.687Z,99880.69
2018-05-23T20:54:30.284Z,99884.12
2018-05-23T20:56:57.866Z,99879.62
2018-05-23T20:59:25.443Z,99883.86
2018-05-23T21:01:53.048Z,99881.23
2018-05-23T21:04:20.624Z,99880.40
2018-05-23T21:06:48.229Z,99884.06
2018-05-23T21:09:15.841Z,99881.63
2018-05-23T21:11:43.409Z,99888.09
2018-05-23T21:14:10.997Z,99885.81
2018-05-23T21:16:38.600Z,99882.75
2018-05-23T21:19:06.173Z,99881.66
2018-05-23T21:21:33.762Z,99882.17
2018-05-23T21:24:01.382Z,99882.28
2018-05-23T21:26:28.963Z,99885.65
2018-05-23T21:28:56.543Z,99884.88
2018-05-23T21:31:24.165Z,99883.20
2018-05-23T21:33:51.744Z,99885.06
2018-05-23T21:36:19.359Z,99887.02
2018-05-23T21:38:46.983Z,99885.34
2018-05-23T21:41:14.567Z,99885.08
2018-05-23T21:43:42.142Z,99885.57
2018-05-23T21:46:09.777Z,99887.02
2018-05-23T21:48:37.364Z,99882.77
2018-05-23T21:51:04.973Z,99877.94
2018-05-23T21:53:32.585Z,99875.53
2018-05-23T21:56:00.172Z,99875.40
2018-05-23T21:58:27.774Z,99879.27
2018-05-23T22:00:55.391Z,99875.48
2018-05-23T22:03:22.968Z,99875.25
2018-05-23T22:05:50.563Z,99876.16
2018-05-23T22:08:18.175Z,99878.84
2018-05-23T22:10:45.767Z,99873.86
2018-05-23T22:13:13.347Z,99878.11
2018-05-23T22:18:19.933Z,99875.09
2018-05-23T22:20:47.478Z,99874.32
2018-05-23T22:23:15.048Z,99875.28
2018-05-23T22:25:42.657Z,99875.41
2018-05-23T22:28:10.391Z,99867.30
2018-05-23T22:30:38.061Z,99869.66
2018-05-23T22:33:05.608Z,99871.89
2018-05-23T22:35:33.190Z,99874.25
2018-05-23T22:38:00.759Z,99868.94
2018-05-23T22:40:28.369Z,99872.37
2018-05-23T22:42:55.956Z,99875.64
2018-05-23T22:45:23.541Z,99866.23
2018-05-23T22:47:51.157Z,99862.97
2018-05-23T22:50:18.737Z,99860.89
2018-05-23T22:52:46.324Z,99858.05
2018-05-23T22:55:13.939Z,99860.81
2018-05-23T22:57:41.522Z,99862.92
2018-05-23T23:00:09.167Z,99859.19
2018-05-23T23:02:36.777Z,99858.25
2018-05-23T23:05:04.364Z,99859.51
2018-05-23T23:07:31.961Z,99866.56
2018-05-23T23:09:59.601Z,99859.64
2018-05-23T23:12:27.180Z,99857.70
2018-05-23T23:14:54.766Z,99864.41
2018-05-23T23:17:22.374Z,99863.05
2018-05-23T23:19:49.948Z,99863.17
2018-05-23T23:22:29.386Z,99863.23
2018-05-23T23:24:56.968Z,99859.83
2018-05-23T23:27:24.550Z,99852.79
2018-05-23T23:29:52.152Z,99857.09
2018-05-23T23:32:19.736Z,99861.45
2018-05-23T23:34:47.301Z,99858.16
2018-05-23T23:37:14.923Z,99855.72
2018-05-23T23:39:42.510Z,99858.37
2018-05-23T23:42:10.097Z,99855.63
2018-05-23T23:44:37.862Z,99858.32
2018-05-23T23:47:05.366Z,99856.74
2018-05-23T23:49:32.931Z,99856.59
2018-05-23T23:52:00.534Z,99855.26
2018-05-23T23:54:28.124Z,99856.66
2018-05-23T23:56:55.709Z,99856.31
2018-05-23T23:59:23.382Z,99857.80
